sensor_id;sensor_type;location;lat;lon;timestamp;P1;durP1;ratioP1;P2;durP2;ratioP2
62435;SDS011;48480;50.252;18.848;2023-07-13T00:00:00;4.20;;;2.80;;
62435;SDS011;48480;50.252;18.848;2023-07-13T00:02:47;5.30;;;3.20;;
62435;SDS011;48480;50.252;18.848;2023-07-13T00:05:31;5.00;;;2.80;;
62435;SDS011;48480;50.252;18.848;2023-07-13T00:08:16;4.40;;;3.00;;
62435;SDS011;48480;50.252;18.848;2023-07-13T00:11:01;4.90;;;2.90;;
62435;SDS011;48480;50.252;18.848;2023-07-13T00:13:46;4.00;;;2.80;;
62435;SDS011;48480;50.252;18.848;2023-07-13T00:16:32;4.80;;;3.00;;
62435;SDS011;48480;50.252;18.848;2023-07-13T00:19:26;6.70;;;3.30;;
62435;SDS011;48480;50.252;18.848;2023-07-13T00:22:10;5.50;;;3.50;;
62435;SDS011;48480;50.252;18.848;2023-07-13T00:24:54;5.60;;;3.90;;
62435;SDS011;48480;50.252;18.848;2023-07-13T00:27:42;4.70;;;3.80;;
62435;SDS011;48480;50.252;18.848;2023-07-13T00:30:27;4.80;;;4.00;;
62435;SDS011;48480;50.252;18.848;2023-07-13T00:33:12;6.30;;;3.30;;
62435;SDS011;48480;50.252;18.848;2023-07-13T00:35:57;5.40;;;3.30;;
62435;SDS011;48480;50.252;18.848;2023-07-13T00:38:42;4.20;;;3.10;;
62435;SDS011;48480;50.252;18.848;2023-07-13T00:41:26;3.70;;;3.20;;
62435;SDS011;48480;50.252;18.848;2023-07-13T00:44:14;4.30;;;2.80;;
62435;SDS011;48480;50.252;18.848;2023-07-13T00:47:00;3.40;;;2.80;;
62435;SDS011;48480;50.252;18.848;2023-07-13T00:49:44;5.10;;;2.50;;
62435;SDS011;48480;50.252;18.848;2023-07-13T00:52:29;5.00;;;2.70;;
62435;SDS011;48480;50.252;18.848;2023-07-13T00:55:15;3.70;;;2.60;;
62435;SDS011;48480;50.252;18.848;2023-07-13T00:58:01;4.70;;;3.20;;
62435;SDS011;48480;50.252;18.848;2023-07-13T01:00:46;4.70;;;3.20;;
62435;SDS011;48480;50.252;18.848;2023-07-13T01:03:32;4.20;;;2.40;;
62435;SDS011;48480;50.252;18.848;2023-07-13T01:06:18;3.40;;;2.00;;
62435;SDS011;48480;50.252;18.848;2023-07-13T01:09:03;3.00;;;1.60;;
62435;SDS011;48480;50.252;18.848;2023-07-13T01:11:48;3.10;;;2.50;;
62435;SDS011;48480;50.252;18.848;2023-07-13T01:14:32;4.80;;;2.60;;
62435;SDS011;48480;50.252;18.848;2023-07-13T01:17:16;4.40;;;2.80;;
62435;SDS011;48480;50.252;18.848;2023-07-13T01:20:01;4.30;;;2.80;;
62435;SDS011;48480;50.252;18.848;2023-07-13T01:22:45;4.10;;;2.40;;
62435;SDS011;48480;50.252;18.848;2023-07-13T01:25:29;6.70;;;2.70;;
62435;SDS011;48480;50.252;18.848;2023-07-13T01:28:14;4.50;;;2.20;;
62435;SDS011;48480;50.252;18.848;2023-07-13T01:31:00;3.40;;;3.00;;
62435;SDS011;48480;50.252;18.848;2023-07-13T01:33:45;3.50;;;2.40;;
62435;SDS011;48480;50.252;18.848;2023-07-13T01:36:30;3.90;;;2.40;;
62435;SDS011;48480;50.252;18.848;2023-07-13T01:39:15;4.30;;;2.40;;
62435;SDS011;48480;50.252;18.848;2023-07-13T01:42:01;5.10;;;3.20;;
62435;SDS011;48480;50.252;18.848;2023-07-13T01:44:46;4.70;;;3.30;;
62435;SDS011;48480;50.252;18.848;2023-07-13T01:47:30;4.20;;;3.30;;
62435;SDS011;48480;50.252;18.848;2023-07-13T01:50:14;5.70;;;3.50;;
62435;SDS011;48480;50.252;18.848;2023-07-13T01:52:59;5.50;;;3.20;;
62435;SDS011;48480;50.252;18.848;2023-07-13T01:55:44;4.60;;;2.90;;
62435;SDS011;48480;50.252;18.848;2023-07-13T01:58:28;4.50;;;3.00;;
62435;SDS011;48480;50.252;18.848;2023-07-13T02:01:12;4.40;;;3.00;;
62435;SDS011;48480;50.252;18.848;2023-07-13T02:03:56;7.20;;;2.80;;
62435;SDS011;48480;50.252;18.848;2023-07-13T02:06:40;4.70;;;2.90;;
62435;SDS011;48480;50.252;18.848;2023-07-13T02:09:24;3.70;;;3.10;;
62435;SDS011;48480;50.252;18.848;2023-07-13T02:12:09;4.20;;;2.30;;
62435;SDS011;48480;50.252;18.848;2023-07-13T02:14:53;4.10;;;2.50;;
62435;SDS011;48480;50.252;18.848;2023-07-13T02:17:38;5.20;;;2.80;;
62435;SDS011;48480;50.252;18.848;2023-07-13T02:20:22;5.50;;;3.10;;
62435;SDS011;48480;50.252;18.848;2023-07-13T02:23:07;4.70;;;2.80;;
62435;SDS011;48480;50.252;18.848;2023-07-13T02:25:57;4.80;;;3.00;;
62435;SDS011;48480;50.252;18.848;2023-07-13T02:28:42;5.20;;;3.30;;
62435;SDS011;48480;50.252;18.848;2023-07-13T02:31:26;5.60;;;3.20;;
62435;SDS011;48480;50.252;18.848;2023-07-13T02:34:11;4.90;;;3.10;;
62435;SDS011;48480;50.252;18.848;2023-07-13T02:36:55;4.80;;;3.20;;
62435;SDS011;48480;50.252;18.848;2023-07-13T02:39:40;5.60;;;3.70;;
62435;SDS011;48480;50.252;18.848;2023-07-13T02:42:25;7.40;;;3.00;;
62435;SDS011;48480;50.252;18.848;2023-07-13T02:45:09;4.60;;;3.40;;
62435;SDS011;48480;50.252;18.848;2023-07-13T02:47:53;7.60;;;3.70;;
62435;SDS011;48480;50.252;18.848;2023-07-13T02:50:39;4.30;;;3.10;;
62435;SDS011;48480;50.252;18.848;2023-07-13T02:53:24;5.00;;;2.80;;
62435;SDS011;48480;50.252;18.848;2023-07-13T02:56:08;4.80;;;3.00;;
62435;SDS011;48480;50.252;18.848;2023-07-13T02:58:53;4.50;;;2.90;;
62435;SDS011;48480;50.252;18.848;2023-07-13T03:01:38;4.90;;;3.20;;
62435;SDS011;48480;50.252;18.848;2023-07-13T03:04:23;3.90;;;3.20;;
62435;SDS011;48480;50.252;18.848;2023-07-13T03:07:08;6.70;;;3.60;;
62435;SDS011;48480;50.252;18.848;2023-07-13T03:09:55;4.80;;;3.90;;
62435;SDS011;48480;50.252;18.848;2023-07-13T03:12:40;3.90;;;3.40;;
62435;SDS011;48480;50.252;18.848;2023-07-13T03:15:25;4.90;;;3.40;;
62435;SDS011;48480;50.252;18.848;2023-07-13T03:18:09;5.70;;;4.00;;
62435;SDS011;48480;50.252;18.848;2023-07-13T03:20:53;6.70;;;3.80;;
62435;SDS011;48480;50.252;18.848;2023-07-13T03:23:37;5.20;;;3.30;;
62435;SDS011;48480;50.252;18.848;2023-07-13T03:26:21;10.30;;;4.20;;
62435;SDS011;48480;50.252;18.848;2023-07-13T03:29:06;5.20;;;3.40;;
62435;SDS011;48480;50.252;18.848;2023-07-13T03:31:50;4.60;;;4.00;;
62435;SDS011;48480;50.252;18.848;2023-07-13T03:34:34;4.60;;;3.60;;
62435;SDS011;48480;50.252;18.848;2023-07-13T03:37:18;4.40;;;3.30;;
62435;SDS011;48480;50.252;18.848;2023-07-13T03:40:03;7.10;;;4.20;;
62435;SDS011;48480;50.252;18.848;2023-07-13T03:42:47;7.30;;;4.70;;
62435;SDS011;48480;50.252;18.848;2023-07-13T03:45:32;4.60;;;3.60;;
62435;SDS011;48480;50.252;18.848;2023-07-13T03:48:16;9.10;;;4.10;;
62435;SDS011;48480;50.252;18.848;2023-07-13T03:51:01;4.70;;;3.90;;
62435;SDS011;48480;50.252;18.848;2023-07-13T03:53:46;7.20;;;3.70;;
62435;SDS011;48480;50.252;18.848;2023-07-13T03:56:31;7.20;;;3.50;;
62435;SDS011;48480;50.252;18.848;2023-07-13T03:59:18;5.00;;;3.80;;
62435;SDS011;48480;50.252;18.848;2023-07-13T04:02:03;6.30;;;4.40;;
62435;SDS011;48480;50.252;18.848;2023-07-13T04:04:48;5.90;;;4.70;;
62435;SDS011;48480;50.252;18.848;2023-07-13T04:07:32;5.30;;;4.60;;
62435;SDS011;48480;50.252;18.848;2023-07-13T04:10:16;6.70;;;5.10;;
62435;SDS011;48480;50.252;18.848;2023-07-13T04:13:00;7.30;;;5.90;;
62435;SDS011;48480;50.252;18.848;2023-07-13T04:15:44;7.70;;;6.00;;
62435;SDS011;48480;50.252;18.848;2023-07-13T04:18:28;7.80;;;5.80;;
62435;SDS011;48480;50.252;18.848;2023-07-13T04:21:13;9.20;;;6.30;;
62435;SDS011;48480;50.252;18.848;2023-07-13T04:23:58;7.30;;;5.60;;
62435;SDS011;48480;50.252;18.848;2023-07-13T04:26:44;8.60;;;5.80;;
62435;SDS011;48480;50.252;18.848;2023-07-13T04:29:28;8.60;;;5.30;;
62435;SDS011;48480;50.252;18.848;2023-07-13T04:32:12;8.90;;;5.20;;
62435;SDS011;48480;50.252;18.848;2023-07-13T04:34:56;7.40;;;5.10;;
62435;SDS011;48480;50.252;18.848;2023-07-13T04:37:43;9.30;;;5.30;;
62435;SDS011;48480;50.252;18.848;2023-07-13T04:40:28;8.10;;;5.30;;
62435;SDS011;48480;50.252;18.848;2023-07-13T04:43:12;7.20;;;5.50;;
62435;SDS011;48480;50.252;18.848;2023-07-13T04:45:57;8.30;;;5.90;;
62435;SDS011;48480;50.252;18.848;2023-07-13T04:48:46;7.80;;;5.70;;
62435;SDS011;48480;50.252;18.848;2023-07-13T04:51:33;10.50;;;6.20;;
62435;SDS011;48480;50.252;18.848;2023-07-13T04:54:17;7.80;;;5.30;;
62435;SDS011;48480;50.252;18.848;2023-07-13T04:57:01;9.90;;;6.00;;
62435;SDS011;48480;50.252;18.848;2023-07-13T04:59:45;9.10;;;5.70;;
62435;SDS011;48480;50.252;18.848;2023-07-13T05:02:30;7.50;;;6.10;;
62435;SDS011;48480;50.252;18.848;2023-07-13T05:05:19;6.70;;;5.80;;
62435;SDS011;48480;50.252;18.848;2023-07-13T05:08:03;9.30;;;6.50;;
62435;SDS011;48480;50.252;18.848;2023-07-13T05:10:48;11.30;;;6.40;;
62435;SDS011;48480;50.252;18.848;2023-07-13T05:13:32;8.40;;;6.10;;
62435;SDS011;48480;50.252;18.848;2023-07-13T05:16:16;7.20;;;5.40;;
62435;SDS011;48480;50.252;18.848;2023-07-13T05:19:01;9.30;;;5.70;;
62435;SDS011;48480;50.252;18.848;2023-07-13T05:21:49;7.20;;;5.20;;
62435;SDS011;48480;50.252;18.848;2023-07-13T05:24:33;7.50;;;5.10;;
62435;SDS011;48480;50.252;18.848;2023-07-13T05:27:18;7.60;;;5.20;;
62435;SDS011;48480;50.252;18.848;2023-07-13T05:30:06;7.40;;;4.60;;
62435;SDS011;48480;50.252;18.848;2023-07-13T05:32:54;6.00;;;4.80;;
62435;SDS011;48480;50.252;18.848;2023-07-13T05:35:39;5.60;;;4.90;;
62435;SDS011;48480;50.252;18.848;2023-07-13T05:38:29;6.50;;;5.40;;
62435;SDS011;48480;50.252;18.848;2023-07-13T05:41:17;6.30;;;5.10;;
62435;SDS011;48480;50.252;18.848;2023-07-13T05:44:04;6.00;;;4.80;;
62435;SDS011;48480;50.252;18.848;2023-07-13T05:46:54;7.10;;;5.60;;
62435;SDS011;48480;50.252;18.848;2023-07-13T05:49:40;9.70;;;5.50;;
62435;SDS011;48480;50.252;18.848;2023-07-13T05:52:24;5.70;;;4.70;;
62435;SDS011;48480;50.252;18.848;2023-07-13T05:55:09;10.00;;;7.00;;
62435;SDS011;48480;50.252;18.848;2023-07-13T05:57:53;7.50;;;5.60;;
62435;SDS011;48480;50.252;18.848;2023-07-13T06:00:38;9.90;;;5.60;;
62435;SDS011;48480;50.252;18.848;2023-07-13T06:03:22;7.60;;;5.20;;
62435;SDS011;48480;50.252;18.848;2023-07-13T06:06:07;9.00;;;5.90;;
62435;SDS011;48480;50.252;18.848;2023-07-13T06:08:53;12.30;;;5.50;;
62435;SDS011;48480;50.252;18.848;2023-07-13T06:11:41;8.20;;;5.60;;
62435;SDS011;48480;50.252;18.848;2023-07-13T06:14:27;9.30;;;5.40;;
62435;SDS011;48480;50.252;18.848;2023-07-13T06:17:29;9.10;;;6.20;;
62435;SDS011;48480;50.252;18.848;2023-07-13T06:20:13;9.40;;;5.20;;
62435;SDS011;48480;50.252;18.848;2023-07-13T06:23:02;8.90;;;5.30;;
62435;SDS011;48480;50.252;18.848;2023-07-13T06:25:46;7.70;;;5.30;;
62435;SDS011;48480;50.252;18.848;2023-07-13T06:31:23;8.10;;;5.10;;
62435;SDS011;48480;50.252;18.848;2023-07-13T06:34:14;7.50;;;4.70;;
62435;SDS011;48480;50.252;18.848;2023-07-13T06:37:01;6.70;;;4.50;;
62435;SDS011;48480;50.252;18.848;2023-07-13T06:39:45;9.30;;;5.20;;
62435;SDS011;48480;50.252;18.848;2023-07-13T06:42:39;8.60;;;5.40;;
62435;SDS011;48480;50.252;18.848;2023-07-13T06:45:23;8.30;;;5.50;;
62435;SDS011;48480;50.252;18.848;2023-07-13T06:48:18;8.20;;;5.60;;
62435;SDS011;48480;50.252;18.848;2023-07-13T06:56:45;6.70;;;5.00;;
62435;SDS011;48480;50.252;18.848;2023-07-13T06:59:35;6.70;;;4.50;;
62435;SDS011;48480;50.252;18.848;2023-07-13T07:02:23;7.00;;;4.70;;
62435;SDS011;48480;50.252;18.848;2023-07-13T07:05:11;8.90;;;4.60;;
62435;SDS011;48480;50.252;18.848;2023-07-13T07:08:01;7.60;;;4.50;;
62435;SDS011;48480;50.252;18.848;2023-07-13T07:10:46;6.30;;;4.20;;
62435;SDS011;48480;50.252;18.848;2023-07-13T07:13:31;7.00;;;3.90;;
62435;SDS011;48480;50.252;18.848;2023-07-13T07:16:15;7.40;;;4.40;;
62435;SDS011;48480;50.252;18.848;2023-07-13T07:19:00;8.40;;;4.50;;
62435;SDS011;48480;50.252;18.848;2023-07-13T07:21:44;9.40;;;4.50;;
62435;SDS011;48480;50.252;18.848;2023-07-13T07:24:28;6.10;;;4.70;;
62435;SDS011;48480;50.252;18.848;2023-07-13T07:27:13;7.50;;;4.80;;
62435;SDS011;48480;50.252;18.848;2023-07-13T07:29:57;7.20;;;4.80;;
62435;SDS011;48480;50.252;18.848;2023-07-13T07:32:49;5.80;;;4.40;;
62435;SDS011;48480;50.252;18.848;2023-07-13T07:35:34;5.70;;;4.10;;
62435;SDS011;48480;50.252;18.848;2023-07-13T07:38:18;6.80;;;4.30;;
62435;SDS011;48480;50.252;18.848;2023-07-13T07:41:05;6.10;;;4.90;;
62435;SDS011;48480;50.252;18.848;2023-07-13T07:43:49;8.30;;;5.30;;
62435;SDS011;48480;50.252;18.848;2023-07-13T07:46:34;8.10;;;5.20;;
62435;SDS011;48480;50.252;18.848;2023-07-13T07:49:19;7.10;;;5.10;;
62435;SDS011;48480;50.252;18.848;2023-07-13T07:52:03;5.00;;;4.20;;
62435;SDS011;48480;50.252;18.848;2023-07-13T07:54:48;6.10;;;4.60;;
62435;SDS011;48480;50.252;18.848;2023-07-13T07:57:33;7.30;;;5.20;;
62435;SDS011;48480;50.252;18.848;2023-07-13T08:00:32;11.60;;;5.20;;
62435;SDS011;48480;50.252;18.848;2023-07-13T08:03:16;6.70;;;4.50;;
62435;SDS011;48480;50.252;18.848;2023-07-13T08:06:06;7.10;;;4.70;;
62435;SDS011;48480;50.252;18.848;2023-07-13T08:08:51;7.20;;;4.60;;
62435;SDS011;48480;50.252;18.848;2023-07-13T08:11:43;7.30;;;4.50;;
62435;SDS011;48480;50.252;18.848;2023-07-13T08:14:28;6.10;;;4.60;;
62435;SDS011;48480;50.252;18.848;2023-07-13T08:17:11;7.70;;;4.80;;
62435;SDS011;48480;50.252;18.848;2023-07-13T08:19:55;5.00;;;4.00;;
62435;SDS011;48480;50.252;18.848;2023-07-13T08:22:39;5.90;;;4.00;;
62435;SDS011;48480;50.252;18.848;2023-07-13T08:25:24;5.30;;;3.50;;
62435;SDS011;48480;50.252;18.848;2023-07-13T08:28:07;4.90;;;3.50;;
62435;SDS011;48480;50.252;18.848;2023-07-13T08:30:51;4.80;;;3.40;;
62435;SDS011;48480;50.252;18.848;2023-07-13T08:33:39;4.80;;;2.90;;
62435;SDS011;48480;50.252;18.848;2023-07-13T08:36:29;4.80;;;3.00;;
62435;SDS011;48480;50.252;18.848;2023-07-13T08:41:50;5.10;;;3.20;;
62435;SDS011;48480;50.252;18.848;2023-07-13T08:48:21;5.30;;;3.40;;
62435;SDS011;48480;50.252;18.848;2023-07-13T08:54:50;6.50;;;3.30;;
62435;SDS011;48480;50.252;18.848;2023-07-13T08:57:23;6.10;;;4.00;;
62435;SDS011;48480;50.252;18.848;2023-07-13T09:00:16;8.50;;;4.20;;
62435;SDS011;48480;50.252;18.848;2023-07-13T09:03:03;5.30;;;4.10;;
62435;SDS011;48480;50.252;18.848;2023-07-13T09:05:58;5.20;;;4.40;;
62435;SDS011;48480;50.252;18.848;2023-07-13T09:09:06;6.40;;;4.60;;
62435;SDS011;48480;50.252;18.848;2023-07-13T09:15:04;6.20;;;5.00;;
62435;SDS011;48480;50.252;18.848;2023-07-13T09:18:16;8.50;;;5.70;;
62435;SDS011;48480;50.252;18.848;2023-07-13T09:23:54;7.40;;;6.40;;
62435;SDS011;48480;50.252;18.848;2023-07-13T09:29:34;7.70;;;6.50;;
62435;SDS011;48480;50.252;18.848;2023-07-13T09:32:33;8.70;;;6.10;;
62435;SDS011;48480;50.252;18.848;2023-07-13T09:35:28;9.00;;;6.20;;
62435;SDS011;48480;50.252;18.848;2023-07-13T09:38:24;10.50;;;6.30;;
62435;SDS011;48480;50.252;18.848;2023-07-13T09:41:34;7.90;;;6.00;;
62435;SDS011;48480;50.252;18.848;2023-07-13T09:44:29;5.60;;;4.80;;
62435;SDS011;48480;50.252;18.848;2023-07-13T09:47:50;7.20;;;2.90;;
62435;SDS011;48480;50.252;18.848;2023-07-13T09:53:38;4.80;;;2.00;;
62435;SDS011;48480;50.252;18.848;2023-07-13T09:56:29;2.90;;;1.70;;
62435;SDS011;48480;50.252;18.848;2023-07-13T09:59:20;7.10;;;1.90;;
62435;SDS011;48480;50.252;18.848;2023-07-13T10:02:24;3.30;;;1.80;;
62435;SDS011;48480;50.252;18.848;2023-07-13T10:05:13;3.70;;;1.60;;
62435;SDS011;48480;50.252;18.848;2023-07-13T10:08:00;3.70;;;1.90;;
62435;SDS011;48480;50.252;18.848;2023-07-13T10:10:47;2.90;;;1.60;;
62435;SDS011;48480;50.252;18.848;2023-07-13T10:13:46;2.90;;;1.80;;
62435;SDS011;48480;50.252;18.848;2023-07-13T10:16:43;3.00;;;1.70;;
62435;SDS011;48480;50.252;18.848;2023-07-13T10:19:29;2.90;;;1.60;;
62435;SDS011;48480;50.252;18.848;2023-07-13T10:25:33;2.90;;;1.70;;
62435;SDS011;48480;50.252;18.848;2023-07-13T10:31:39;4.00;;;1.60;;
62435;SDS011;48480;50.252;18.848;2023-07-13T10:34:31;2.90;;;1.70;;
62435;SDS011;48480;50.252;18.848;2023-07-13T10:37:24;3.30;;;1.50;;
62435;SDS011;48480;50.252;18.848;2023-07-13T10:44:12;3.60;;;2.50;;
62435;SDS011;48480;50.252;18.848;2023-07-13T10:47:27;4.40;;;3.10;;
62435;SDS011;48480;50.252;18.848;2023-07-13T10:50:16;5.40;;;2.90;;
62435;SDS011;48480;50.252;18.848;2023-07-13T10:53:30;5.70;;;2.90;;
62435;SDS011;48480;50.252;18.848;2023-07-13T10:56:24;4.20;;;2.80;;
62435;SDS011;48480;50.252;18.848;2023-07-13T11:04:54;4.40;;;2.40;;
62435;SDS011;48480;50.252;18.848;2023-07-13T11:14:31;4.00;;;2.00;;
62435;SDS011;48480;50.252;18.848;2023-07-13T11:20:23;3.90;;;2.00;;
62435;SDS011;48480;50.252;18.848;2023-07-13T11:23:26;2.70;;;1.90;;
62435;SDS011;48480;50.252;18.848;2023-07-13T11:30:21;4.50;;;2.20;;
62435;SDS011;48480;50.252;18.848;2023-07-13T11:36:23;3.20;;;2.20;;
62435;SDS011;48480;50.252;18.848;2023-07-13T11:44:52;3.00;;;2.10;;
62435;SDS011;48480;50.252;18.848;2023-07-13T11:47:30;4.80;;;2.60;;
62435;SDS011;48480;50.252;18.848;2023-07-13T11:50:18;4.30;;;2.20;;
62435;SDS011;48480;50.252;18.848;2023-07-13T11:53:10;3.50;;;2.00;;
62435;SDS011;48480;50.252;18.848;2023-07-13T11:55:54;4.10;;;2.50;;
62435;SDS011;48480;50.252;18.848;2023-07-13T12:01:30;2.80;;;1.90;;
62435;SDS011;48480;50.252;18.848;2023-07-13T12:04:52;4.70;;;1.80;;
62435;SDS011;48480;50.252;18.848;2023-07-13T12:13:49;4.40;;;1.80;;
62435;SDS011;48480;50.252;18.848;2023-07-13T12:16:52;3.20;;;1.90;;
62435;SDS011;48480;50.252;18.848;2023-07-13T12:37:54;6.70;;;3.10;;
62435;SDS011;48480;50.252;18.848;2023-07-13T12:40:53;6.80;;;4.40;;
62435;SDS011;48480;50.252;18.848;2023-07-13T12:47:11;3.50;;;2.40;;
62435;SDS011;48480;50.252;18.848;2023-07-13T12:49:59;5.70;;;2.40;;
62435;SDS011;48480;50.252;18.848;2023-07-13T12:52:51;3.60;;;2.80;;
62435;SDS011;48480;50.252;18.848;2023-07-13T12:55:48;4.10;;;2.70;;
62435;SDS011;48480;50.252;18.848;2023-07-13T12:58:38;2.60;;;1.90;;
62435;SDS011;48480;50.252;18.848;2023-07-13T13:01:45;3.60;;;2.00;;
62435;SDS011;48480;50.252;18.848;2023-07-13T13:04:33;3.00;;;2.10;;
62435;SDS011;48480;50.252;18.848;2023-07-13T13:07:20;3.00;;;2.10;;
62435;SDS011;48480;50.252;18.848;2023-07-13T13:10:11;2.60;;;1.80;;
62435;SDS011;48480;50.252;18.848;2023-07-13T13:13:16;3.00;;;2.10;;
62435;SDS011;48480;50.252;18.848;2023-07-13T13:18:50;3.20;;;1.90;;
62435;SDS011;48480;50.252;18.848;2023-07-13T13:21:47;2.30;;;1.60;;
62435;SDS011;48480;50.252;18.848;2023-07-13T13:27:22;4.00;;;1.70;;
62435;SDS011;48480;50.252;18.848;2023-07-13T13:30:01;2.30;;;1.40;;
62435;SDS011;48480;50.252;18.848;2023-07-13T13:32:47;2.60;;;1.80;;
62435;SDS011;48480;50.252;18.848;2023-07-13T13:35:31;2.20;;;1.50;;
62435;SDS011;48480;50.252;18.848;2023-07-13T13:38:19;2.50;;;1.60;;
62435;SDS011;48480;50.252;18.848;2023-07-13T13:43:58;4.30;;;1.90;;
62435;SDS011;48480;50.252;18.848;2023-07-13T13:46:49;2.50;;;1.60;;
62435;SDS011;48480;50.252;18.848;2023-07-13T13:49:40;3.00;;;1.90;;
62435;SDS011;48480;50.252;18.848;2023-07-13T13:52:30;3.20;;;1.50;;
62435;SDS011;48480;50.252;18.848;2023-07-13T13:55:35;1.80;;;1.40;;
62435;SDS011;48480;50.252;18.848;2023-07-13T13:58:27;3.70;;;1.60;;
62435;SDS011;48480;50.252;18.848;2023-07-13T14:04:19;2.10;;;1.60;;
62435;SDS011;48480;50.252;18.848;2023-07-13T14:07:14;2.00;;;1.30;;
62435;SDS011;48480;50.252;18.848;2023-07-13T14:09:58;2.00;;;1.50;;
62435;SDS011;48480;50.252;18.848;2023-07-13T14:12:53;5.80;;;1.90;;
62435;SDS011;48480;50.252;18.848;2023-07-13T14:15:39;5.10;;;2.00;;
62435;SDS011;48480;50.252;18.848;2023-07-13T14:18:26;2.40;;;1.60;;
62435;SDS011;48480;50.252;18.848;2023-07-13T14:21:23;2.10;;;1.60;;
62435;SDS011;48480;50.252;18.848;2023-07-13T14:24:10;1.70;;;1.50;;
62435;SDS011;48480;50.252;18.848;2023-07-13T14:26:59;3.80;;;2.10;;
62435;SDS011;48480;50.252;18.848;2023-07-13T14:29:46;4.10;;;2.10;;
62435;SDS011;48480;50.252;18.848;2023-07-13T14:32:33;3.00;;;1.80;;
62435;SDS011;48480;50.252;18.848;2023-07-13T14:35:28;2.50;;;1.90;;
62435;SDS011;48480;50.252;18.848;2023-07-13T14:38:18;3.20;;;2.40;;
62435;SDS011;48480;50.252;18.848;2023-07-13T14:41:04;2.60;;;1.90;;
62435;SDS011;48480;50.252;18.848;2023-07-13T14:43:59;3.10;;;1.70;;
62435;SDS011;48480;50.252;18.848;2023-07-13T14:46:55;2.20;;;1.80;;
62435;SDS011;48480;50.252;18.848;2023-07-13T14:52:39;3.30;;;2.20;;
62435;SDS011;48480;50.252;18.848;2023-07-13T14:55:24;3.10;;;2.20;;
62435;SDS011;48480;50.252;18.848;2023-07-13T14:58:32;4.00;;;2.60;;
62435;SDS011;48480;50.252;18.848;2023-07-13T15:01:21;2.80;;;2.30;;
62435;SDS011;48480;50.252;18.848;2023-07-13T15:04:07;3.30;;;2.20;;
62435;SDS011;48480;50.252;18.848;2023-07-13T15:06:59;4.50;;;2.60;;
62435;SDS011;48480;50.252;18.848;2023-07-13T15:09:54;3.40;;;2.40;;
62435;SDS011;48480;50.252;18.848;2023-07-13T15:12:59;3.30;;;2.60;;
62435;SDS011;48480;50.252;18.848;2023-07-13T15:16:00;3.70;;;3.00;;
62435;SDS011;48480;50.252;18.848;2023-07-13T15:18:45;4.50;;;2.70;;
62435;SDS011;48480;50.252;18.848;2023-07-13T15:21:30;4.60;;;2.60;;
62435;SDS011;48480;50.252;18.848;2023-07-13T15:24:18;2.90;;;2.60;;
62435;SDS011;48480;50.252;18.848;2023-07-13T15:27:08;4.60;;;2.70;;
62435;SDS011;48480;50.252;18.848;2023-07-13T15:30:18;5.90;;;2.80;;
62435;SDS011;48480;50.252;18.848;2023-07-13T15:33:27;3.20;;;2.90;;
62435;SDS011;48480;50.252;18.848;2023-07-13T15:36:24;3.10;;;2.40;;
62435;SDS011;48480;50.252;18.848;2023-07-13T15:39:14;2.90;;;2.50;;
62435;SDS011;48480;50.252;18.848;2023-07-13T15:42:22;4.50;;;2.60;;
62435;SDS011;48480;50.252;18.848;2023-07-13T15:45:27;3.80;;;2.60;;
62435;SDS011;48480;50.252;18.848;2023-07-13T15:48:16;4.00;;;2.80;;
62435;SDS011;48480;50.252;18.848;2023-07-13T15:51:19;6.90;;;3.00;;
62435;SDS011;48480;50.252;18.848;2023-07-13T15:54:22;4.90;;;3.20;;
62435;SDS011;48480;50.252;18.848;2023-07-13T15:57:20;3.10;;;2.30;;
62435;SDS011;48480;50.252;18.848;2023-07-13T16:00:20;4.00;;;2.20;;
62435;SDS011;48480;50.252;18.848;2023-07-13T16:03:23;4.90;;;2.50;;
62435;SDS011;48480;50.252;18.848;2023-07-13T16:09:19;3.20;;;2.20;;
62435;SDS011;48480;50.252;18.848;2023-07-13T16:12:09;3.20;;;2.30;;
62435;SDS011;48480;50.252;18.848;2023-07-13T16:14:58;2.80;;;2.20;;
62435;SDS011;48480;50.252;18.848;2023-07-13T16:17:54;3.20;;;2.20;;
62435;SDS011;48480;50.252;18.848;2023-07-13T16:20:45;2.20;;;2.00;;
62435;SDS011;48480;50.252;18.848;2023-07-13T16:23:48;4.30;;;2.40;;
62435;SDS011;48480;50.252;18.848;2023-07-13T16:26:35;2.50;;;1.90;;
62435;SDS011;48480;50.252;18.848;2023-07-13T16:29:36;3.50;;;2.80;;
62435;SDS011;48480;50.252;18.848;2023-07-13T16:32:34;3.30;;;2.40;;
62435;SDS011;48480;50.252;18.848;2023-07-13T16:35:28;2.50;;;2.30;;
62435;SDS011;48480;50.252;18.848;2023-07-13T16:41:15;4.50;;;2.30;;
62435;SDS011;48480;50.252;18.848;2023-07-13T16:44:14;3.10;;;2.40;;
62435;SDS011;48480;50.252;18.848;2023-07-13T16:47:01;2.30;;;2.10;;
62435;SDS011;48480;50.252;18.848;2023-07-13T16:49:53;3.20;;;2.20;;
62435;SDS011;48480;50.252;18.848;2023-07-13T16:52:41;3.60;;;2.40;;
62435;SDS011;48480;50.252;18.848;2023-07-13T16:55:28;5.00;;;3.50;;
62435;SDS011;48480;50.252;18.848;2023-07-13T16:58:22;2.40;;;2.00;;
62435;SDS011;48480;50.252;18.848;2023-07-13T17:01:18;2.90;;;2.10;;
62435;SDS011;48480;50.252;18.848;2023-07-13T17:04:10;4.10;;;3.10;;
62435;SDS011;48480;50.252;18.848;2023-07-13T17:07:06;3.70;;;2.00;;
62435;SDS011;48480;50.252;18.848;2023-07-13T17:10:05;2.80;;;2.40;;
62435;SDS011;48480;50.252;18.848;2023-07-13T17:13:13;2.20;;;1.80;;
62435;SDS011;48480;50.252;18.848;2023-07-13T17:16:04;2.40;;;2.00;;
62435;SDS011;48480;50.252;18.848;2023-07-13T17:19:11;4.00;;;1.80;;
62435;SDS011;48480;50.252;18.848;2023-07-13T17:21:56;2.30;;;1.80;;
62435;SDS011;48480;50.252;18.848;2023-07-13T17:24:58;2.50;;;1.80;;
62435;SDS011;48480;50.252;18.848;2023-07-13T17:27:57;4.10;;;1.80;;
62435;SDS011;48480;50.252;18.848;2023-07-13T17:31:08;2.00;;;1.60;;
62435;SDS011;48480;50.252;18.848;2023-07-13T17:34:23;2.40;;;1.80;;
62435;SDS011;48480;50.252;18.848;2023-07-13T17:37:19;2.60;;;1.80;;
62435;SDS011;48480;50.252;18.848;2023-07-13T17:40:08;2.70;;;2.00;;
62435;SDS011;48480;50.252;18.848;2023-07-13T17:43:18;2.30;;;1.60;;
62435;SDS011;48480;50.252;18.848;2023-07-13T17:49:40;3.40;;;2.00;;
62435;SDS011;48480;50.252;18.848;2023-07-13T17:52:31;3.20;;;2.20;;
62435;SDS011;48480;50.252;18.848;2023-07-13T17:55:20;5.10;;;2.60;;
62435;SDS011;48480;50.252;18.848;2023-07-13T17:58:10;3.90;;;2.70;;
62435;SDS011;48480;50.252;18.848;2023-07-13T18:04:18;5.00;;;2.30;;
62435;SDS011;48480;50.252;18.848;2023-07-13T18:07:10;2.50;;;1.90;;
62435;SDS011;48480;50.252;18.848;2023-07-13T18:10:15;3.00;;;2.10;;
62435;SDS011;48480;50.252;18.848;2023-07-13T18:13:20;4.50;;;2.80;;
62435;SDS011;48480;50.252;18.848;2023-07-13T18:16:28;4.30;;;2.70;;
62435;SDS011;48480;50.252;18.848;2023-07-13T18:19:28;5.20;;;3.20;;
62435;SDS011;48480;50.252;18.848;2023-07-13T18:22:33;3.60;;;2.60;;
62435;SDS011;48480;50.252;18.848;2023-07-13T18:25:34;3.00;;;2.20;;
62435;SDS011;48480;50.252;18.848;2023-07-13T18:32:14;3.70;;;1.90;;
62435;SDS011;48480;50.252;18.848;2023-07-13T18:35:34;3.50;;;2.20;;
62435;SDS011;48480;50.252;18.848;2023-07-13T18:38:23;4.10;;;2.10;;
62435;SDS011;48480;50.252;18.848;2023-07-13T18:41:29;4.00;;;2.20;;
62435;SDS011;48480;50.252;18.848;2023-07-13T18:44:25;4.00;;;2.00;;
62435;SDS011;48480;50.252;18.848;2023-07-13T18:47:20;2.90;;;2.20;;
62435;SDS011;48480;50.252;18.848;2023-07-13T18:53:53;2.80;;;2.30;;
62435;SDS011;48480;50.252;18.848;2023-07-13T18:56:55;3.80;;;2.80;;
62435;SDS011;48480;50.252;18.848;2023-07-13T18:59:54;4.90;;;2.50;;